createdAt,value
2023-05-03T00:01:27.505Z,20.80
2023-05-03T00:03:54.195Z,21.67
2023-05-03T00:06:22.133Z,19.02
2023-05-03T00:08:48.975Z,23.92
2023-05-03T00:11:15.986Z,19.48
2023-05-03T00:13:42.846Z,19.58
2023-05-03T00:16:09.521Z,20.88
2023-05-03T00:18:36.374Z,19.85
2023-05-03T00:21:03.327Z,21.50
2023-05-03T00:23:30.045Z,17.88
2023-05-03T00:25:58.510Z,24.08
2023-05-03T00:28:26.004Z,19.10
2023-05-03T00:30:53.274Z,19.27
2023-05-03T00:33:19.934Z,23.40
2023-05-03T00:35:46.586Z,20.73
2023-05-03T00:38:15.378Z,21.67
2023-05-03T00:40:43.371Z,22.60
2023-05-03T00:43:12.453Z,22.08
2023-05-03T00:45:39.102Z,18.45
2023-05-03T00:48:06.538Z,19.58
2023-05-03T00:50:33.687Z,17.65
2023-05-03T00:53:00.452Z,24.52
2023-05-03T00:55:30.684Z,20.80
2023-05-03T00:57:57.722Z,19.02
2023-05-03T01:00:25.125Z,15.88
2023-05-03T01:02:51.981Z,25.58
2023-05-03T01:05:18.902Z,19.05
2023-05-03T01:07:51.564Z,17.33
2023-05-03T01:10:26.355Z,19.42
2023-05-03T01:13:05.962Z,16.83
2023-05-03T01:15:48.336Z,17.90
2023-05-03T01:18:18.750Z,20.85
2023-05-03T01:20:48.594Z,22.08
2023-05-03T01:23:36.694Z,20.58
2023-05-03T01:26:21.339Z,19.67
2023-05-03T01:28:48.117Z,20.13
2023-05-03T01:31:22.461Z,22.67
2023-05-03T01:34:05.826Z,18.55
2023-05-03T01:36:35.243Z,23.77
2023-05-03T01:39:06.850Z,21.83
2023-05-03T01:41:35.938Z,15.05
2023-05-03T01:44:03.608Z,17.35
2023-05-03T01:46:30.273Z,22.30
2023-05-03T01:48:56.968Z,17.92
2023-05-03T01:51:23.654Z,20.27
2023-05-03T01:53:50.604Z,19.52
2023-05-03T01:56:17.228Z,21.10
2023-05-03T01:58:44.050Z,20.08
2023-05-03T02:01:10.728Z,21.33
2023-05-03T02:03:37.348Z,23.13
2023-05-03T02:06:04.055Z,22.08
2023-05-03T02:08:30.888Z,19.98
2023-05-03T02:10:57.549Z,22.85
2023-05-03T02:13:24.129Z,20.80
2023-05-03T02:15:50.805Z,17.85
2023-05-03T02:18:18.413Z,18.42
2023-05-03T02:20:46.032Z,20.90
2023-05-03T02:23:13.127Z,24.63
2023-05-03T02:25:40.608Z,19.05
2023-05-03T02:28:07.466Z,22.63
2023-05-03T02:30:35.894Z,21.00
2023-05-03T02:33:02.691Z,21.33
2023-05-03T02:35:30.669Z,19.40
2023-05-03T02:37:57.644Z,23.70
2023-05-03T02:40:24.876Z,18.23
2023-05-03T02:42:52.419Z,18.30
2023-05-03T02:45:24.751Z,18.75
2023-05-03T02:47:52.066Z,18.80
2023-05-03T02:50:19.601Z,26.40
2023-05-03T02:52:46.549Z,17.38
2023-05-03T02:55:13.492Z,21.25
2023-05-03T02:57:42.626Z,17.98
2023-05-03T03:00:12.073Z,15.50
2023-05-03T03:02:38.957Z,21.35
2023-05-03T03:05:05.928Z,20.60
2023-05-03T03:07:32.680Z,22.30
2023-05-03T03:09:59.388Z,22.17
2023-05-03T03:12:29.117Z,17.75
2023-05-03T03:14:56.551Z,14.73
2023-05-03T03:17:23.789Z,16.90
2023-05-03T03:19:50.530Z,21.25
2023-05-03T03:22:17.562Z,16.52
2023-05-03T03:24:45.325Z,19.35
2023-05-03T03:27:12.048Z,17.42
2023-05-03T03:29:38.800Z,17.98
2023-05-03T03:32:06.330Z,20.10
2023-05-03T03:34:33.272Z,18.30
2023-05-03T03:37:01.072Z,13.27
2023-05-03T03:39:28.644Z,15.25
2023-05-03T03:41:55.322Z,19.23
2023-05-03T03:44:22.528Z,15.48
2023-05-03T03:46:49.245Z,18.70
2023-05-03T03:49:17.707Z,16.33
2023-05-03T03:51:44.497Z,20.40
2023-05-03T03:54:11.246Z,18.85
2023-05-03T03:56:43.433Z,15.02
2023-05-03T03:59:10.119Z,23.25
2023-05-03T04:01:37.727Z,17.52
2023-05-03T04:04:05.668Z,21.70
2023-05-03T04:06:33.349Z,21.10
2023-05-03T04:09:04.602Z,13.98
2023-05-03T04:11:33.925Z,19.40
2023-05-03T04:14:03.559Z,19.02
2023-05-03T04:16:31.303Z,19.50
2023-05-03T04:19:01.505Z,19.37
2023-05-03T04:21:28.876Z,16.88
2023-05-03T04:23:55.920Z,18.08
2023-05-03T04:26:31.108Z,14.57
2023-05-03T04:31:30.835Z,18.38
2023-05-03T04:33:58.033Z,24.02
2023-05-03T04:36:26.725Z,17.08
2023-05-03T04:38:54.816Z,18.48
2023-05-03T04:41:24.592Z,15.27
2023-05-03T04:43:53.387Z,18.83
2023-05-03T04:46:20.524Z,18.77
2023-05-03T04:48:47.954Z,14.15
2023-05-03T04:51:14.650Z,16.92
2023-05-03T04:53:42.870Z,12.30
2023-05-03T04:56:15.380Z,17.17
2023-05-03T04:58:44.558Z,16.35
2023-05-03T05:01:12.254Z,14.75
2023-05-03T05:03:39.249Z,17.85
2023-05-03T05:06:12.411Z,15.27
2023-05-03T05:08:40.844Z,16.88
2023-05-03T05:11:10.775Z,15.70
2023-05-03T05:13:37.499Z,18.83
2023-05-03T05:16:04.384Z,18.42
2023-05-03T05:18:32.425Z,17.25
2023-05-03T05:23:29.834Z,17.60
2023-05-03T05:26:00.697Z,17.45
2023-05-03T05:28:30.571Z,15.75
2023-05-03T05:30:57.290Z,16.48
2023-05-03T05:33:24.530Z,15.40
2023-05-03T05:35:52.499Z,15.70
2023-05-03T05:38:21.479Z,16.63
2023-05-03T05:40:50.450Z,17.33
2023-05-03T05:43:18.549Z,16.70
2023-05-03T05:45:46.487Z,16.10
2023-05-03T05:48:14.108Z,13.23
2023-05-03T05:50:42.443Z,13.18
2023-05-03T05:53:12.289Z,15.18
2023-05-03T05:55:44.550Z,14.85
2023-05-03T05:58:12.986Z,17.02
2023-05-03T06:00:45.468Z,16.52
2023-05-03T06:03:12.609Z,15.93
2023-05-03T06:05:39.691Z,15.43
2023-05-03T06:08:06.352Z,14.10
2023-05-03T06:10:33.633Z,13.55
2023-05-03T06:13:00.672Z,12.30
2023-05-03T06:15:28.368Z,16.77
2023-05-03T06:17:55.623Z,12.27
2023-05-03T06:20:24.548Z,15.70
2023-05-03T06:22:52.410Z,15.00
2023-05-03T06:25:19.157Z,11.95
2023-05-03T06:27:48.699Z,14.48
2023-05-03T06:30:16.850Z,12.90
2023-05-03T06:32:44.162Z,11.93
2023-05-03T06:35:12.643Z,13.93
2023-05-03T06:37:40.561Z,17.25
2023-05-03T06:40:07.813Z,11.63
2023-05-03T06:42:36.933Z,14.27
2023-05-03T06:45:08.335Z,14.18
2023-05-03T06:47:37.693Z,15.40
2023-05-03T06:50:05.096Z,10.60
2023-05-03T06:52:32.425Z,16.88
2023-05-03T06:54:59.404Z,16.05
2023-05-03T06:57:28.219Z,13.77
2023-05-03T06:59:55.572Z,11.77
2023-05-03T07:02:22.832Z,17.88
2023-05-03T07:04:49.885Z,16.80
2023-05-03T07:07:17.037Z,14.30
2023-05-03T07:09:44.172Z,12.98
2023-05-03T07:12:11.580Z,15.15
2023-05-03T07:14:40.051Z,13.15
2023-05-03T07:17:06.672Z,12.85
2023-05-03T07:19:33.304Z,15.00
2023-05-03T07:22:00.222Z,13.82
2023-05-03T07:24:26.930Z,13.52
2023-05-03T07:26:53.854Z,17.38
2023-05-03T07:29:21.066Z,14.27
2023-05-03T07:31:47.997Z,15.43
2023-05-03T07:34:14.804Z,13.07
2023-05-03T07:36:41.484Z,17.42
2023-05-03T07:39:08.531Z,10.70
2023-05-03T07:41:35.414Z,10.35
2023-05-03T07:44:02.068Z,11.75
2023-05-03T07:46:28.827Z,11.80
2023-05-03T07:48:55.593Z,12.05
2023-05-03T07:51:22.668Z,13.80
2023-05-03T07:53:49.314Z,14.73
2023-05-03T07:56:16.027Z,16.65
2023-05-03T07:58:45.014Z,11.90
2023-05-03T08:01:13.467Z,14.43
2023-05-03T08:03:40.619Z,13.63
2023-05-03T08:06:07.494Z,10.98
2023-05-03T08:08:35.824Z,15.82
2023-05-03T08:11:02.356Z,12.77
2023-05-03T08:13:29.025Z,13.70
2023-05-03T08:15:55.895Z,12.50
2023-05-03T08:18:23.861Z,15.25
2023-05-03T08:20:50.726Z,11.55
2023-05-03T08:23:18.021Z,13.55
2023-05-03T08:25:45.396Z,10.35
2023-05-03T08:28:11.976Z,16.48
2023-05-03T08:30:38.757Z,16.85
2023-05-03T08:33:05.786Z,14.77
2023-05-03T08:35:32.584Z,15.00
2023-05-03T08:37:59.390Z,14.32
2023-05-03T08:40:28.034Z,12.40
2023-05-03T08:42:56.861Z,8.98
2023-05-03T08:45:23.548Z,15.05
2023-05-03T08:47:54.405Z,11.65
2023-05-03T08:50:21.731Z,14.52
2023-05-03T08:52:48.662Z,10.25
2023-05-03T08:55:15.334Z,8.10
2023-05-03T08:57:42.546Z,14.27
2023-05-03T09:00:11.178Z,14.18
2023-05-03T09:02:39.681Z,11.85
2023-05-03T09:05:15.762Z,10.18
2023-05-03T09:08:01.077Z,12.73
2023-05-03T09:10:27.992Z,12.27
2023-05-03T09:12:59.882Z,13.85
2023-05-03T09:15:29.441Z,16.08
2023-05-03T09:18:11.345Z,14.32
2023-05-03T09:20:40.110Z,10.40
2023-05-03T09:23:08.190Z,14.40
2023-05-03T09:25:48.830Z,10.27
2023-05-03T09:28:17.384Z,11.70
2023-05-03T09:30:44.994Z,11.18
2023-05-03T09:33:12.131Z,11.40
2023-05-03T09:35:38.969Z,10.88
2023-05-03T09:38:06.189Z,11.20
2023-05-03T09:40:33.289Z,11.85
2023-05-03T09:43:11.201Z,14.48
2023-05-03T09:45:38.402Z,11.10
2023-05-03T09:48:06.681Z,9.55
2023-05-03T09:50:34.547Z,12.00
2023-05-03T09:53:03.767Z,15.48
2023-05-03T09:55:35.510Z,11.85
2023-05-03T09:58:09.056Z,9.90
2023-05-03T10:00:41.724Z,11.38
2023-05-03T10:03:11.327Z,11.95
2023-05-03T10:05:48.844Z,12.60
2023-05-03T10:08:24.285Z,9.90
2023-05-03T10:10:53.507Z,12.90
2023-05-03T10:13:23.484Z,12.60
2023-05-03T10:15:54.508Z,13.45
2023-05-03T10:18:24.086Z,9.73
2023-05-03T10:20:55.625Z,12.20
2023-05-03T10:23:22.418Z,10.40
2023-05-03T10:26:07.182Z,10.65
2023-05-03T10:28:34.293Z,10.82
2023-05-03T10:31:01.145Z,12.65
2023-05-03T10:33:37.293Z,11.38
2023-05-03T10:36:10.875Z,11.80
2023-05-03T10:38:37.925Z,9.90
2023-05-03T10:41:06.731Z,11.65
2023-05-03T10:43:33.353Z,19.23
2023-05-03T10:46:04.143Z,12.20
2023-05-03T10:48:32.023Z,10.10
2023-05-03T10:51:28.506Z,8.50
2023-05-03T10:53:55.124Z,9.55
2023-05-03T10:56:22.708Z,9.32
2023-05-03T10:58:50.658Z,10.68
2023-05-03T11:01:19.901Z,12.93
2023-05-03T11:04:05.291Z,11.63
2023-05-03T11:06:34.328Z,8.63
2023-05-03T11:09:01.820Z,8.73
2023-05-03T11:11:28.438Z,10.38
2023-05-03T11:13:56.357Z,9.90
2023-05-03T11:16:23.292Z,14.07
2023-05-03T11:18:50.494Z,10.32
2023-05-03T11:21:17.587Z,8.27
2023-05-03T11:23:44.713Z,10.18
2023-05-03T11:26:11.955Z,9.98
2023-05-03T11:28:39.648Z,9.60
2023-05-03T11:31:06.640Z,9.23
2023-05-03T11:33:35.208Z,9.00
2023-05-03T11:36:03.565Z,10.35
2023-05-03T11:38:34.128Z,9.73
2023-05-03T11:41:01.648Z,6.03
2023-05-03T11:43:29.062Z,6.13
2023-05-03T11:45:58.201Z,9.20
2023-05-03T11:48:26.157Z,9.45
2023-05-03T11:50:56.779Z,9.68
2023-05-03T11:53:24.727Z,12.18
2023-05-03T11:55:53.844Z,11.70
2023-05-03T11:58:22.502Z,11.43
2023-05-03T12:00:50.850Z,10.18
2023-05-03T12:03:33.343Z,9.20
2023-05-03T12:06:02.893Z,6.95
2023-05-03T12:08:36.686Z,7.47
2023-05-03T12:11:07.096Z,7.70
2023-05-03T12:13:38.667Z,8.93
2023-05-03T12:16:12.573Z,8.65
2023-05-03T12:18:55.796Z,6.75
2023-05-03T12:23:56.564Z,7.78
2023-05-03T12:26:25.295Z,8.43
2023-05-03T12:28:55.265Z,7.50
2023-05-03T12:31:23.459Z,9.55
2023-05-03T12:34:12.962Z,7.90
2023-05-03T12:36:38.171Z,12.57
2023-05-03T12:39:09.426Z,4.80
2023-05-03T12:44:10.274Z,9.60
2023-05-03T12:46:38.885Z,12.10
2023-05-03T12:49:08.094Z,6.30
2023-05-03T12:51:35.797Z,5.43
2023-05-03T12:54:10.172Z,12.02
2023-05-03T12:56:40.101Z,8.32
2023-05-03T12:59:38.999Z,8.85
2023-05-03T13:04:55.813Z,8.00
2023-05-03T13:07:15.195Z,8.73
2023-05-03T13:12:20.375Z,7.15
2023-05-03T13:14:48.284Z,8.25
2023-05-03T13:17:15.645Z,8.48
2023-05-03T13:19:44.328Z,9.77
2023-05-03T13:22:11.886Z,9.23
2023-05-03T13:24:38.571Z,6.85
2023-05-03T13:27:05.536Z,8.40
2023-05-03T13:29:32.140Z,9.02
2023-05-03T13:31:58.816Z,7.60
2023-05-03T13:34:26.204Z,6.90
2023-05-03T13:36:52.826Z,9.35
2023-05-03T13:39:19.619Z,5.80
2023-05-03T13:41:48.269Z,8.60
2023-05-03T13:44:15.223Z,9.18
2023-05-03T13:46:43.372Z,7.15
2023-05-03T13:49:10.526Z,6.88
2023-05-03T13:51:37.776Z,6.20
2023-05-03T13:54:05.858Z,4.43
2023-05-03T13:56:32.715Z,5.85
2023-05-03T13:58:59.382Z,4.13
2023-05-03T14:01:27.293Z,5.28
2023-05-03T14:03:54.775Z,7.45
2023-05-03T14:06:23.579Z,6.60
2023-05-03T14:08:50.298Z,6.47
2023-05-03T14:11:18.346Z,5.88
2023-05-03T14:13:56.441Z,6.85
2023-05-03T14:16:36.397Z,8.18
2023-05-03T14:19:07.540Z,6.43
2023-05-03T14:21:34.377Z,6.88
2023-05-03T14:24:01.678Z,6.47
2023-05-03T14:26:29.550Z,6.80
2023-05-03T14:28:56.414Z,8.13
2023-05-03T14:31:23.045Z,6.25
2023-05-03T14:33:49.827Z,6.38
2023-05-03T14:36:16.478Z,8.65
2023-05-03T14:38:43.417Z,11.30
2023-05-03T14:41:10.052Z,6.68
2023-05-03T14:43:37.432Z,4.70
2023-05-03T14:46:04.341Z,9.90
2023-05-03T14:48:31.019Z,8.52
2023-05-03T14:50:57.731Z,8.15
2023-05-03T14:53:24.433Z,6.20
2023-05-03T14:55:51.552Z,6.40
2023-05-03T14:58:18.839Z,7.15
2023-05-03T15:00:46.007Z,6.05
2023-05-03T15:03:13.871Z,9.38
2023-05-03T15:05:47.154Z,7.22
2023-05-03T15:08:15.224Z,6.53
2023-05-03T15:10:44.362Z,7.05
2023-05-03T15:13:12.209Z,6.20
2023-05-03T15:15:39.981Z,7.05
2023-05-03T15:18:08.526Z,6.07
2023-05-03T15:20:35.676Z,4.75
2023-05-03T15:23:04.407Z,5.05
2023-05-03T15:25:31.749Z,6.63
2023-05-03T15:27:59.975Z,6.93
2023-05-03T15:30:28.784Z,5.07
2023-05-03T15:32:55.525Z,6.78
2023-05-03T15:35:22.309Z,3.95
2023-05-03T15:37:49.319Z,7.45
2023-05-03T15:40:18.505Z,4.47
2023-05-03T15:42:45.234Z,4.88
2023-05-03T15:45:12.903Z,2.90
2023-05-03T15:47:40.016Z,3.03
2023-05-03T15:50:07.702Z,3.55
2023-05-03T15:52:34.970Z,4.95
2023-05-03T15:55:02.250Z,4.25
2023-05-03T15:57:30.225Z,6.30
2023-05-03T15:59:57.245Z,3.35
2023-05-03T16:02:23.969Z,4.60
2023-05-03T16:04:50.924Z,5.85
2023-05-03T16:07:18.126Z,4.20
2023-05-03T16:09:46.064Z,6.32
2023-05-03T16:12:12.734Z,3.90
2023-05-03T16:14:39.775Z,2.55
2023-05-03T16:17:06.695Z,2.25
2023-05-03T16:19:33.443Z,3.33
2023-05-03T16:22:00.155Z,2.53
2023-05-03T16:24:26.862Z,3.38
2023-05-03T16:26:53.981Z,5.07
2023-05-03T16:29:21.019Z,4.78
2023-05-03T16:31:47.840Z,3.90
2023-05-03T16:34:14.547Z,3.70
2023-05-03T16:36:43.029Z,4.03
2023-05-03T16:39:11.319Z,5.57
2023-05-03T16:41:38.524Z,2.60
2023-05-03T16:44:06.284Z,2.20
2023-05-03T16:46:36.624Z,4.45
2023-05-03T16:51:31.498Z,4.82
2023-05-03T16:54:02.344Z,2.53
2023-05-03T16:56:30.772Z,3.97
2023-05-03T16:58:57.587Z,4.78
2023-05-03T17:01:24.196Z,4.55
2023-05-03T17:03:51.129Z,3.35
2023-05-03T17:06:18.383Z,3.35
2023-05-03T17:08:45.370Z,3.40
2023-05-03T17:11:15.178Z,5.13
2023-05-03T17:13:42.042Z,4.57
2023-05-03T17:16:10.443Z,3.00
2023-05-03T17:18:37.948Z,3.65
2023-05-03T17:21:04.989Z,4.05
2023-05-03T17:23:36.172Z,4.32
2023-05-03T17:26:04.094Z,7.28
2023-05-03T17:28:31.682Z,6.25
2023-05-03T17:30:58.856Z,6.78
2023-05-03T17:33:26.004Z,6.55
2023-05-03T17:35:53.221Z,6.43
2023-05-03T17:38:19.854Z,7.10
2023-05-03T17:40:46.653Z,4.10
2023-05-03T17:43:14.128Z,7.20
2023-05-03T17:45:43.690Z,8.27
2023-05-03T17:48:11.177Z,4.45
2023-05-03T17:50:38.286Z,6.38
2023-05-03T17:53:05.047Z,4.68
2023-05-03T17:55:35.480Z,7.70
2023-05-03T18:00:29.741Z,7.05
2023-05-03T18:02:56.991Z,5.47
2023-05-03T18:05:24.097Z,4.05
2023-05-03T18:07:50.816Z,4.82
2023-05-03T18:10:17.929Z,5.18
2023-05-03T18:12:44.585Z,2.90
2023-05-03T18:15:11.487Z,4.20
2023-05-03T18:17:38.314Z,4.55
2023-05-03T18:20:06.546Z,4.30
2023-05-03T18:22:33.807Z,4.78
2023-05-03T18:25:02.170Z,7.38
2023-05-03T18:27:29.361Z,6.55
2023-05-03T18:29:56.181Z,4.75
2023-05-03T18:32:25.655Z,5.60
2023-05-03T18:34:52.521Z,7.60
2023-05-03T18:37:19.124Z,5.25
2023-05-03T18:39:45.882Z,9.55
2023-05-03T18:42:12.944Z,6.95
2023-05-03T18:44:39.706Z,4.32
2023-05-03T18:47:07.633Z,5.55
2023-05-03T18:49:34.615Z,6.93
2023-05-03T18:52:02.356Z,6.63
2023-05-03T18:54:29.054Z,5.82
2023-05-03T18:56:55.741Z,7.15
2023-05-03T18:59:22.341Z,8.60
2023-05-03T19:01:50.600Z,4.32
2023-05-03T19:04:17.397Z,4.22
2023-05-03T19:06:44.183Z,9.60
2023-05-03T19:09:11.980Z,6.70
2023-05-03T19:11:42.713Z,5.72
2023-05-03T19:14:09.539Z,4.88
2023-05-03T19:16:36.907Z,8.50
2023-05-03T19:19:03.641Z,5.50
2023-05-03T19:21:30.317Z,6.47
2023-05-03T19:23:56.966Z,6.25
2023-05-03T19:26:24.525Z,9.23
2023-05-03T19:28:51.323Z,7.93
2023-05-03T19:31:18.035Z,7.32
2023-05-03T19:33:44.691Z,5.03
2023-05-03T19:36:14.968Z,7.72
2023-05-03T19:38:41.746Z,6.72
2023-05-03T19:41:11.998Z,4.00
2023-05-03T19:43:39.503Z,10.63
2023-05-03T19:46:07.152Z,5.95
2023-05-03T19:48:34.334Z,7.20
2023-05-03T19:51:01.199Z,9.18
2023-05-03T19:53:28.397Z,5.25
2023-05-03T19:55:59.288Z,8.20
2023-05-03T19:58:27.226Z,7.07
2023-05-03T20:00:54.655Z,5.28
2023-05-03T20:03:23.001Z,7.05
2023-05-03T20:05:50.263Z,10.68
2023-05-03T20:08:17.341Z,8.40
2023-05-03T20:10:46.267Z,7.68
2023-05-03T20:13:13.432Z,7.72
2023-05-03T20:15:40.868Z,8.30
2023-05-03T20:18:07.688Z,7.00
2023-05-03T20:20:34.499Z,6.47
2023-05-03T20:23:01.141Z,7.10
2023-05-03T20:25:27.912Z,7.55
2023-05-03T20:27:54.648Z,8.38
2023-05-03T20:30:21.519Z,7.47
2023-05-03T20:32:48.400Z,8.02
2023-05-03T20:35:15.394Z,8.90
2023-05-03T20:37:42.176Z,7.85
2023-05-03T20:40:11.176Z,6.30
2023-05-03T20:42:37.857Z,6.95
2023-05-03T20:45:05.562Z,9.40
2023-05-03T20:47:32.673Z,5.97
2023-05-03T20:49:59.933Z,7.78
2023-05-03T20:52:26.587Z,5.40
2023-05-03T20:54:53.240Z,8.88
2023-05-03T20:57:19.925Z,8.30
2023-05-03T20:59:46.535Z,6.65
2023-05-03T21:02:13.233Z,7.10
2023-05-03T21:04:40.096Z,5.57
2023-05-03T21:07:06.732Z,6.93
2023-05-03T21:09:33.555Z,5.50
2023-05-03T21:12:01.483Z,7.68
2023-05-03T21:14:28.803Z,8.63
2023-05-03T21:16:55.700Z,7.43
2023-05-03T21:19:22.395Z,7.45
2023-05-03T21:21:49.125Z,9.70
2023-05-03T21:24:15.776Z,8.10
2023-05-03T21:26:42.439Z,9.38
2023-05-03T21:29:09.342Z,9.05
2023-05-03T21:31:35.960Z,6.22
2023-05-03T21:34:04.005Z,10.65
2023-05-03T21:36:32.051Z,6.53
2023-05-03T21:38:58.853Z,7.85
2023-05-03T21:41:25.477Z,7.07
2023-05-03T21:43:52.301Z,9.13
2023-05-03T21:46:19.129Z,13.82
2023-05-03T21:48:45.811Z,8.57
2023-05-03T21:51:19.528Z,6.90
2023-05-03T21:53:48.391Z,7.38
2023-05-03T21:56:15.469Z,7.63
2023-05-03T21:58:44.363Z,6.93
2023-05-03T22:01:11.755Z,8.50
2023-05-03T22:06:08.456Z,8.48
2023-05-03T22:08:35.202Z,8.07
2023-05-03T22:11:05.027Z,7.53
2023-05-03T22:13:32.090Z,10.85
2023-05-03T22:16:06.960Z,8.70
2023-05-03T22:18:34.796Z,9.65
2023-05-03T22:21:02.618Z,8.73
2023-05-03T22:23:29.589Z,8.73
2023-05-03T22:25:56.381Z,8.48
2023-05-03T22:28:23.371Z,11.73
2023-05-03T22:30:50.057Z,7.15
2023-05-03T22:33:16.718Z,9.05
2023-05-03T22:35:43.574Z,11.02
2023-05-03T22:38:10.236Z,10.65
2023-05-03T22:40:36.826Z,13.68
2023-05-03T22:43:03.582Z,10.77
2023-05-03T22:45:30.539Z,10.45
2023-05-03T22:47:58.864Z,10.13
2023-05-03T22:50:25.540Z,10.48
2023-05-03T22:52:52.210Z,10.68
2023-05-03T22:55:18.938Z,10.20
2023-05-03T22:57:45.705Z,9.27
2023-05-03T23:00:13.002Z,10.43
2023-05-03T23:02:39.693Z,13.50
2023-05-03T23:05:07.083Z,10.55
2023-05-03T23:07:33.788Z,11.32
2023-05-03T23:10:04.958Z,10.30
2023-05-03T23:12:32.290Z,11.48
2023-05-03T23:14:59.121Z,8.77
2023-05-03T23:17:25.970Z,15.52
2023-05-03T23:19:53.451Z,10.43
2023-05-03T23:22:20.042Z,10.70
2023-05-03T23:24:47.012Z,11.38
2023-05-03T23:27:13.796Z,12.02
2023-05-03T23:29:41.111Z,10.15
2023-05-03T23:32:08.293Z,10.02
2023-05-03T23:34:35.518Z,10.50
2023-05-03T23:37:02.257Z,11.55
2023-05-03T23:39:28.991Z,13.48
2023-05-03T23:41:55.566Z,13.77
2023-05-03T23:44:22.270Z,10.63
2023-05-03T23:46:48.877Z,12.00
2023-05-03T23:49:15.617Z,13.18
2023-05-03T23:51:42.276Z,11.98
2023-05-03T23:54:09.013Z,9.00
2023-05-03T23:56:35.874Z,11.45
2023-05-03T23:59:03.626Z,10.05
